createdAt,value
2023-02-19T00:00:23.272Z,3.90
2023-02-19T00:02:52.522Z,3.38
2023-02-19T00:05:20.561Z,3.25
2023-02-19T00:07:48.646Z,3.20
2023-02-19T00:10:18.682Z,3.50
2023-02-19T00:12:48.723Z,3.53
2023-02-19T00:15:16.940Z,3.40
2023-02-19T00:17:46.606Z,3.42
2023-02-19T00:20:15.251Z,3.45
2023-02-19T00:22:43.392Z,3.38
2023-02-19T00:25:14.440Z,3.90
2023-02-19T00:27:45.376Z,3.13
2023-02-19T00:30:13.750Z,3.60
2023-02-19T00:32:42.073Z,3.97
2023-02-19T00:35:11.337Z,3.17
2023-02-19T00:37:41.730Z,3.42
2023-02-19T00:40:10.576Z,3.10
2023-02-19T00:42:38.536Z,3.42
2023-02-19T00:45:07.008Z,3.00
2023-02-19T00:47:35.000Z,2.92
2023-02-19T00:50:03.003Z,3.03
2023-02-19T00:52:32.387Z,2.50
2023-02-19T00:55:00.428Z,3.03
2023-02-19T00:57:28.590Z,2.90
2023-02-19T00:59:56.797Z,2.90
2023-02-19T01:02:26.955Z,2.78
2023-02-19T01:04:55.528Z,2.83
2023-02-19T01:07:24.343Z,3.30
2023-02-19T01:09:53.989Z,2.70
2023-02-19T01:12:24.319Z,2.88
2023-02-19T01:14:52.662Z,3.08
2023-02-19T01:17:21.142Z,3.03
2023-02-19T01:19:52.429Z,2.75
2023-02-19T01:22:21.047Z,2.53
2023-02-19T01:24:49.339Z,3.08
2023-02-19T01:27:19.078Z,3.28
2023-02-19T01:29:47.076Z,3.08
2023-02-19T01:32:14.977Z,3.17
2023-02-19T01:34:43.121Z,2.75
2023-02-19T01:37:12.190Z,2.78
2023-02-19T01:39:40.584Z,2.38
2023-02-19T01:42:16.830Z,2.65
2023-02-19T01:45:24.903Z,2.70
2023-02-19T01:47:59.739Z,2.72
2023-02-19T01:50:30.846Z,2.92
2023-02-19T01:53:00.294Z,3.42
2023-02-19T01:55:28.249Z,3.20
2023-02-19T01:57:57.554Z,2.58
2023-02-19T02:00:25.932Z,3.17
2023-02-19T02:03:00.194Z,2.83
2023-02-19T02:05:51.514Z,3.17
2023-02-19T02:08:38.595Z,2.95
2023-02-19T02:11:07.414Z,2.47
2023-02-19T02:13:37.844Z,2.60
2023-02-19T02:16:19.857Z,2.83
2023-02-19T02:18:59.698Z,2.67
2023-02-19T02:21:57.036Z,2.70
2023-02-19T02:25:03.796Z,3.33
2023-02-19T02:27:56.336Z,2.13
2023-02-19T02:30:33.012Z,2.25
2023-02-19T02:33:14.027Z,1.92
2023-02-19T02:35:47.296Z,1.95
2023-02-19T02:38:17.930Z,2.13
2023-02-19T02:40:46.743Z,1.77
2023-02-19T02:43:14.956Z,1.83
2023-02-19T02:45:44.654Z,1.90
2023-02-19T02:48:21.649Z,1.80
2023-02-19T02:50:54.624Z,1.67
2023-02-19T02:53:46.850Z,2.08
2023-02-19T02:56:16.644Z,2.03
2023-02-19T02:58:45.505Z,1.70
2023-02-19T03:01:36.974Z,1.63
2023-02-19T03:04:09.437Z,1.60
2023-02-19T03:06:38.971Z,1.52
2023-02-19T03:09:12.473Z,1.30
2023-02-19T03:12:02.634Z,1.90
2023-02-19T03:14:54.345Z,1.50
2023-02-19T03:17:45.849Z,2.10
2023-02-19T03:20:18.139Z,1.60
2023-02-19T03:22:47.728Z,1.67
2023-02-19T03:25:37.311Z,1.63
2023-02-19T03:28:08.954Z,1.65
2023-02-19T03:30:41.061Z,1.90
2023-02-19T03:33:14.299Z,1.67
2023-02-19T03:35:45.928Z,1.77
2023-02-19T03:38:18.876Z,1.67
2023-02-19T03:40:55.526Z,1.55
2023-02-19T03:43:32.308Z,1.80
2023-02-19T03:46:07.760Z,1.90
2023-02-19T03:48:38.956Z,1.73
2023-02-19T03:51:19.198Z,1.90
2023-02-19T03:53:57.631Z,2.20
2023-02-19T03:56:32.102Z,2.08
2023-02-19T03:59:14.550Z,1.90
2023-02-19T04:01:48.682Z,2.10
2023-02-19T04:04:23.626Z,2.03
2023-02-19T04:06:55.568Z,1.75
2023-02-19T04:09:26.224Z,2.28
2023-02-19T04:11:55.402Z,1.88
2023-02-19T04:14:28.204Z,2.00
2023-02-19T04:17:02.168Z,2.33
2023-02-19T04:19:34.883Z,2.45
2023-02-19T04:22:05.775Z,2.17
2023-02-19T04:24:41.757Z,1.95
2023-02-19T04:27:11.366Z,2.17
2023-02-19T04:29:39.712Z,2.20
2023-02-19T04:32:08.205Z,2.33
2023-02-19T04:34:37.946Z,2.30
2023-02-19T04:37:06.366Z,2.47
2023-02-19T04:39:35.204Z,2.10
2023-02-19T04:42:03.609Z,1.73
2023-02-19T04:44:34.809Z,2.08
2023-02-19T04:47:03.422Z,2.40
2023-02-19T04:49:31.970Z,2.60
2023-02-19T04:52:03.921Z,1.83
2023-02-19T04:54:32.258Z,2.08
2023-02-19T04:57:00.725Z,2.22
2023-02-19T04:59:29.022Z,2.20
2023-02-19T05:01:58.096Z,1.98
2023-02-19T05:04:26.680Z,1.95
2023-02-19T05:06:54.940Z,2.53
2023-02-19T05:09:24.688Z,2.33
2023-02-19T05:11:52.973Z,2.70
2023-02-19T05:14:21.125Z,2.47
2023-02-19T05:16:49.580Z,2.65
2023-02-19T05:19:18.018Z,3.05
2023-02-19T05:21:46.198Z,2.78
2023-02-19T05:24:14.422Z,2.78
2023-02-19T05:26:45.503Z,3.03
2023-02-19T05:29:13.813Z,2.85
2023-02-19T05:31:42.272Z,2.45
2023-02-19T05:34:10.687Z,2.78
2023-02-19T05:36:41.624Z,2.92
2023-02-19T05:39:13.293Z,2.47
2023-02-19T05:41:41.839Z,2.23
2023-02-19T05:44:12.580Z,2.38
2023-02-19T05:46:40.859Z,2.53
2023-02-19T05:49:09.253Z,2.60
2023-02-19T05:51:37.568Z,3.15
2023-02-19T05:54:05.914Z,2.90
2023-02-19T05:56:36.603Z,2.67
2023-02-19T05:59:08.070Z,2.72
2023-02-19T06:01:37.878Z,3.08
2023-02-19T06:04:06.458Z,2.65
2023-02-19T06:06:34.853Z,2.70
2023-02-19T06:09:03.347Z,2.95
2023-02-19T06:11:32.166Z,3.13
2023-02-19T06:14:01.832Z,2.83
2023-02-19T06:16:32.491Z,3.17
2023-02-19T06:19:05.608Z,2.88
2023-02-19T06:21:34.158Z,3.47
2023-02-19T06:24:07.166Z,3.55
2023-02-19T06:26:35.659Z,3.58
2023-02-19T06:29:04.561Z,3.50
2023-02-19T06:31:35.569Z,3.65
2023-02-19T06:34:06.981Z,3.45
2023-02-19T06:36:35.614Z,3.28
2023-02-19T06:39:05.529Z,3.35
2023-02-19T06:41:36.249Z,3.30
2023-02-19T06:44:06.331Z,3.50
2023-02-19T06:46:37.288Z,3.17
2023-02-19T06:49:07.626Z,3.58
2023-02-19T06:51:36.316Z,2.60
2023-02-19T06:54:04.881Z,2.67
2023-02-19T06:56:37.750Z,2.13
2023-02-19T06:59:09.176Z,2.47
2023-02-19T07:01:51.265Z,2.17
2023-02-19T07:04:21.363Z,1.95
2023-02-19T07:06:49.967Z,2.35
2023-02-19T07:09:18.534Z,2.50
2023-02-19T07:11:49.051Z,3.15
2023-02-19T07:14:23.631Z,1.80
2023-02-19T07:16:54.707Z,1.75
2023-02-19T07:19:24.525Z,1.92
2023-02-19T07:21:52.636Z,1.80
2023-02-19T07:24:21.588Z,1.63
2023-02-19T07:26:49.542Z,1.90
2023-02-19T07:29:17.642Z,1.95
2023-02-19T07:31:45.675Z,2.03
2023-02-19T07:34:13.530Z,1.95
2023-02-19T07:36:42.828Z,1.92
2023-02-19T07:39:14.458Z,1.63
2023-02-19T07:41:42.536Z,2.20
2023-02-19T07:44:13.466Z,2.00
2023-02-19T07:46:41.378Z,2.13
2023-02-19T07:49:09.302Z,2.47
2023-02-19T07:51:40.013Z,2.00
2023-02-19T07:54:09.312Z,2.17
2023-02-19T07:56:37.394Z,2.63
2023-02-19T07:59:09.159Z,2.20
2023-02-19T08:01:54.622Z,2.05
2023-02-19T08:04:22.523Z,2.13
2023-02-19T08:06:54.390Z,2.35
2023-02-19T08:09:23.722Z,2.17
2023-02-19T08:12:09.126Z,2.10
2023-02-19T08:14:37.121Z,2.70
2023-02-19T08:17:05.066Z,1.83
2023-02-19T08:19:33.032Z,2.30
2023-02-19T08:22:01.008Z,1.55
2023-02-19T08:24:31.150Z,2.38
2023-02-19T08:26:59.020Z,1.67
2023-02-19T08:29:27.858Z,1.60
2023-02-19T08:31:55.770Z,1.77
2023-02-19T08:34:27.679Z,2.00
2023-02-19T08:36:55.743Z,1.80
2023-02-19T08:39:23.755Z,1.75
2023-02-19T08:41:53.035Z,2.50
2023-02-19T08:44:21.051Z,2.20
2023-02-19T08:46:48.967Z,2.00
2023-02-19T08:49:17.470Z,2.15
2023-02-19T08:51:47.499Z,2.35
2023-02-19T08:54:17.561Z,1.63
2023-02-19T08:56:45.953Z,2.03
2023-02-19T08:59:23.038Z,2.25
2023-02-19T09:01:59.178Z,2.15
2023-02-19T09:04:27.617Z,2.03
2023-02-19T09:06:56.466Z,2.20
2023-02-19T09:09:27.158Z,2.42
2023-02-19T09:11:55.829Z,2.25
2023-02-19T09:14:28.067Z,2.35
2023-02-19T09:16:59.138Z,2.50
2023-02-19T09:19:53.665Z,2.72
2023-02-19T09:22:36.234Z,2.33
2023-02-19T09:25:08.371Z,2.13
2023-02-19T09:27:51.784Z,2.05
2023-02-19T09:30:30.706Z,2.30
2023-02-19T09:33:08.730Z,2.60
2023-02-19T09:35:48.261Z,3.28
2023-02-19T09:38:22.752Z,2.17
2023-02-19T09:40:57.015Z,2.60
2023-02-19T09:43:41.861Z,1.55
2023-02-19T09:46:29.991Z,1.80
2023-02-19T09:49:35.976Z,1.73
2023-02-19T09:52:18.905Z,1.50
2023-02-19T09:55:06.484Z,2.80
2023-02-19T09:57:55.703Z,1.73
2023-02-19T10:00:34.696Z,1.73
2023-02-19T10:03:41.796Z,2.08
2023-02-19T10:06:25.871Z,2.05
2023-02-19T10:09:22.504Z,1.52
2023-02-19T10:12:23.815Z,1.85
2023-02-19T10:15:06.517Z,2.10
2023-02-19T10:17:43.042Z,1.75
2023-02-19T10:20:18.535Z,1.98
2023-02-19T10:23:09.876Z,2.42
2023-02-19T10:25:49.873Z,1.42
2023-02-19T10:28:39.490Z,1.45
2023-02-19T10:31:32.842Z,1.58
2023-02-19T10:34:21.250Z,1.85
2023-02-19T10:37:03.066Z,1.23
2023-02-19T10:39:48.541Z,1.70
2023-02-19T10:42:44.488Z,1.48
2023-02-19T10:45:30.420Z,1.75
2023-02-19T10:48:05.712Z,1.30
2023-02-19T10:50:52.373Z,1.30
2023-02-19T10:53:53.685Z,1.67
2023-02-19T10:56:37.978Z,1.55
2023-02-19T10:59:41.374Z,1.67
2023-02-19T11:02:24.489Z,1.48
2023-02-19T11:05:20.165Z,1.58
2023-02-19T11:07:56.297Z,1.60
2023-02-19T11:10:47.951Z,1.67
2023-02-19T11:13:26.443Z,1.25
2023-02-19T11:16:03.053Z,1.58
2023-02-19T11:18:45.640Z,1.45
2023-02-19T11:21:34.873Z,1.35
2023-02-19T11:24:05.023Z,1.30
2023-02-19T11:26:43.338Z,1.52
2023-02-19T11:29:19.922Z,1.27
2023-02-19T11:31:52.891Z,1.75
2023-02-19T11:34:41.762Z,1.30
2023-02-19T11:37:21.083Z,1.70
2023-02-19T11:39:59.232Z,1.55
2023-02-19T11:42:49.695Z,1.73
2023-02-19T11:45:43.600Z,1.50
2023-02-19T11:48:54.120Z,1.52
2023-02-19T11:52:07.261Z,1.30
2023-02-19T11:54:53.115Z,1.52
2023-02-19T11:57:37.016Z,1.42
2023-02-19T12:00:27.456Z,1.58
2023-02-19T12:06:20.524Z,1.77
2023-02-19T12:09:17.867Z,1.20
2023-02-19T12:12:10.836Z,1.77
2023-02-19T12:18:00.924Z,1.80
2023-02-19T12:20:37.231Z,1.35
2023-02-19T12:23:38.328Z,1.45
2023-02-19T12:26:20.378Z,1.58
2023-02-19T12:29:18.552Z,1.20
2023-02-19T12:32:15.962Z,1.35
2023-02-19T12:35:12.003Z,1.17
2023-02-19T12:37:50.004Z,1.50
2023-02-19T12:40:34.925Z,1.55
2023-02-19T12:43:16.880Z,1.40
2023-02-19T12:45:52.354Z,1.23
2023-02-19T12:48:37.128Z,1.20
2023-02-19T12:51:13.449Z,1.10
2023-02-19T12:53:46.834Z,1.75
2023-02-19T12:56:20.545Z,1.40
2023-02-19T12:58:52.703Z,1.30
2023-02-19T13:01:24.770Z,1.13
2023-02-19T13:04:02.185Z,1.63
2023-02-19T13:06:38.880Z,1.40
2023-02-19T13:09:15.385Z,1.55
2023-02-19T13:11:48.877Z,1.27
2023-02-19T13:14:24.669Z,1.10
2023-02-19T13:16:58.126Z,1.20
2023-02-19T13:19:26.237Z,2.47
2023-02-19T13:22:21.961Z,1.60
2023-02-19T13:24:51.688Z,1.00
2023-02-19T13:27:35.410Z,1.60
2023-02-19T13:30:22.861Z,1.27
2023-02-19T13:33:03.160Z,1.52
2023-02-19T13:36:01.359Z,1.20
2023-02-19T13:38:30.950Z,1.20
2023-02-19T13:41:00.534Z,1.27
2023-02-19T13:43:34.705Z,1.48
2023-02-19T13:46:06.176Z,1.25
2023-02-19T13:48:36.713Z,1.50
2023-02-19T13:51:40.030Z,1.38
2023-02-19T13:54:27.624Z,1.45
2023-02-19T13:57:28.559Z,1.05
2023-02-19T13:59:58.502Z,1.40
2023-02-19T14:02:31.047Z,1.73
2023-02-19T14:05:01.498Z,1.05
2023-02-19T14:07:54.171Z,1.40
2023-02-19T14:11:02.085Z,1.48
2023-02-19T14:14:11.802Z,1.52
2023-02-19T14:17:01.313Z,1.20
2023-02-19T14:19:51.683Z,1.17
2023-02-19T14:23:02.432Z,1.30
2023-02-19T14:26:02.361Z,1.48
2023-02-19T14:28:36.545Z,1.90
2023-02-19T14:31:14.387Z,1.52
2023-02-19T14:33:53.896Z,1.60
2023-02-19T14:36:45.258Z,1.40
2023-02-19T14:39:17.391Z,1.35
2023-02-19T14:41:47.895Z,1.42
2023-02-19T14:44:20.072Z,1.75
2023-02-19T14:46:59.916Z,1.85
2023-02-19T14:49:35.843Z,2.45
2023-02-19T14:52:08.743Z,1.60
2023-02-19T14:54:42.492Z,1.90
2023-02-19T14:57:16.947Z,2.00
2023-02-19T14:59:55.147Z,1.35
2023-02-19T15:02:27.923Z,1.80
2023-02-19T15:04:57.480Z,1.75
2023-02-19T15:07:29.910Z,1.75
2023-02-19T15:10:05.559Z,1.50
2023-02-19T15:12:43.184Z,1.85
2023-02-19T15:15:19.683Z,2.03
2023-02-19T15:17:48.164Z,1.50
2023-02-19T15:20:23.626Z,1.58
2023-02-19T15:22:52.320Z,1.60
2023-02-19T15:25:24.691Z,1.70
2023-02-19T15:27:52.657Z,1.75
2023-02-19T15:30:24.114Z,1.60
2023-02-19T15:32:56.574Z,1.67
2023-02-19T15:37:56.126Z,1.33
2023-02-19T15:40:29.982Z,1.40
2023-02-19T15:42:59.138Z,1.42
2023-02-19T15:45:30.190Z,1.60
2023-02-19T15:48:03.218Z,1.20
2023-02-19T15:50:35.678Z,1.90
2023-02-19T15:55:37.844Z,1.45
2023-02-19T15:58:10.751Z,1.50
2023-02-19T16:00:43.206Z,2.03
2023-02-19T16:05:47.134Z,1.63
2023-02-19T16:08:23.288Z,1.55
2023-02-19T16:10:56.352Z,1.80
2023-02-19T16:13:26.035Z,1.63
2023-02-19T16:16:00.510Z,1.88
2023-02-19T16:18:28.825Z,2.08
2023-02-19T16:20:58.645Z,1.98
2023-02-19T16:23:27.318Z,2.20
2023-02-19T16:26:03.661Z,1.80
2023-02-19T16:28:38.950Z,1.77
2023-02-19T16:31:08.853Z,2.08
2023-02-19T16:33:39.316Z,2.75
2023-02-19T16:36:41.595Z,2.38
2023-02-19T16:39:20.743Z,2.80
2023-02-19T16:42:20.991Z,2.13
2023-02-19T16:44:49.179Z,3.08
2023-02-19T16:47:32.103Z,3.13
2023-02-19T16:50:02.918Z,2.80
2023-02-19T16:52:32.423Z,2.70
2023-02-19T16:55:00.410Z,2.35
2023-02-19T16:57:29.275Z,2.58
2023-02-19T16:59:57.227Z,2.42
2023-02-19T17:02:26.016Z,2.25
2023-02-19T17:04:55.960Z,3.08
2023-02-19T17:07:24.326Z,2.42
2023-02-19T17:09:53.611Z,2.38
2023-02-19T17:12:22.325Z,2.67
2023-02-19T17:14:50.328Z,2.22
2023-02-19T17:17:18.244Z,1.95
2023-02-19T17:19:46.212Z,2.13
2023-02-19T17:22:16.934Z,1.88
2023-02-19T17:24:45.950Z,2.30
2023-02-19T17:27:15.595Z,2.05
2023-02-19T17:29:43.762Z,2.15
2023-02-19T17:32:11.964Z,2.30
2023-02-19T17:34:40.005Z,2.72
2023-02-19T17:37:08.060Z,2.90
2023-02-19T17:39:36.163Z,2.45
2023-02-19T17:42:05.326Z,2.53
2023-02-19T17:44:36.348Z,2.95
2023-02-19T17:47:04.524Z,2.85
2023-02-19T17:49:32.866Z,3.00
2023-02-19T17:52:04.543Z,2.60
2023-02-19T17:54:34.579Z,2.13
2023-02-19T17:57:05.437Z,1.92
2023-02-19T17:59:37.765Z,2.47
2023-02-19T18:02:05.851Z,2.13
2023-02-19T18:04:35.550Z,2.58
2023-02-19T18:07:05.005Z,2.58
2023-02-19T18:09:33.136Z,2.28
2023-02-19T18:12:01.322Z,2.70
2023-02-19T18:14:31.164Z,2.40
2023-02-19T18:17:00.764Z,2.53
2023-02-19T18:19:28.814Z,3.08
2023-02-19T18:21:56.887Z,2.85
2023-02-19T18:24:24.980Z,3.00
2023-02-19T18:26:53.092Z,2.85
2023-02-19T18:29:24.340Z,2.90
2023-02-19T18:31:52.616Z,3.17
2023-02-19T18:34:22.353Z,4.20
2023-02-19T18:36:50.774Z,2.88
2023-02-19T18:39:18.892Z,3.65
2023-02-19T18:41:50.875Z,10.75
2023-02-19T18:44:20.277Z,4.90
2023-02-19T18:46:48.523Z,3.40
2023-02-19T18:49:17.368Z,2.70
2023-02-19T18:51:49.823Z,2.90
2023-02-19T18:56:47.302Z,3.00
2023-02-19T18:59:20.787Z,2.83
2023-02-19T19:01:51.469Z,3.10
2023-02-19T19:04:23.034Z,2.28
2023-02-19T19:06:56.500Z,2.80
2023-02-19T19:09:32.214Z,3.92
2023-02-19T19:12:05.604Z,2.40
2023-02-19T19:14:38.928Z,2.35
2023-02-19T19:17:07.764Z,2.08
2023-02-19T19:19:38.576Z,1.83
2023-02-19T19:22:18.109Z,2.30
2023-02-19T19:24:48.407Z,2.38
2023-02-19T19:27:21.476Z,2.83
2023-02-19T19:30:08.694Z,2.25
2023-02-19T19:32:39.988Z,2.25
2023-02-19T19:35:11.919Z,3.30
2023-02-19T19:37:48.889Z,2.75
2023-02-19T19:40:20.013Z,2.42
2023-02-19T19:42:54.793Z,2.55
2023-02-19T19:45:23.953Z,2.75
2023-02-19T19:47:53.146Z,2.78
2023-02-19T19:50:35.750Z,2.95
2023-02-19T19:53:06.387Z,2.10
2023-02-19T19:55:44.535Z,2.40
2023-02-19T19:58:15.015Z,2.22
2023-02-19T20:00:54.801Z,3.17
2023-02-19T20:03:23.915Z,2.20
2023-02-19T20:05:52.873Z,3.13
2023-02-19T20:08:25.044Z,2.33
2023-02-19T20:10:53.912Z,2.92
2023-02-19T20:13:30.782Z,2.83
2023-02-19T20:16:03.351Z,3.10
2023-02-19T20:21:11.097Z,2.50
2023-02-19T20:23:43.147Z,3.33
2023-02-19T20:26:12.689Z,2.35
2023-02-19T20:28:45.390Z,2.95
2023-02-19T20:31:16.768Z,3.50
2023-02-19T20:33:48.564Z,2.92
2023-02-19T20:36:17.122Z,3.10
2023-02-19T20:38:54.944Z,3.25
2023-02-19T20:41:23.885Z,2.95
2023-02-19T20:43:52.485Z,3.20
2023-02-19T20:46:24.327Z,2.92
2023-02-19T20:48:53.329Z,2.60
2023-02-19T20:51:23.908Z,3.10
2023-02-19T20:53:53.890Z,3.25
2023-02-19T20:56:23.395Z,3.47
2023-02-19T21:01:34.233Z,2.88
2023-02-19T21:04:02.896Z,2.65
2023-02-19T21:06:35.791Z,2.63
2023-02-19T21:09:14.882Z,3.08
2023-02-19T21:11:44.775Z,2.95
2023-02-19T21:14:13.747Z,2.42
2023-02-19T21:16:45.644Z,3.15
2023-02-19T21:19:16.040Z,3.15
2023-02-19T21:21:45.755Z,2.50
2023-02-19T21:24:20.728Z,2.97
2023-02-19T21:26:49.243Z,3.08
2023-02-19T21:29:22.184Z,2.78
2023-02-19T21:31:52.511Z,3.30
2023-02-19T21:34:23.763Z,3.03
2023-02-19T21:37:06.714Z,2.95
2023-02-19T21:39:58.232Z,2.60
2023-02-19T21:42:26.702Z,2.78
2023-02-19T21:44:57.653Z,2.60
2023-02-19T21:47:27.730Z,2.67
2023-02-19T21:49:56.046Z,2.28
2023-02-19T21:52:27.238Z,2.83
2023-02-19T21:54:56.831Z,2.42
2023-02-19T21:57:26.473Z,3.05
2023-02-19T21:59:58.959Z,3.13
2023-02-19T22:04:58.284Z,2.63
2023-02-19T22:07:29.583Z,3.08
2023-02-19T22:10:01.517Z,2.45
2023-02-19T22:12:32.664Z,2.75
2023-02-19T22:15:01.092Z,3.10
2023-02-19T22:17:32.337Z,2.40
2023-02-19T22:20:03.371Z,2.63
2023-02-19T22:22:34.538Z,3.15
2023-02-19T22:25:10.817Z,3.30
2023-02-19T22:27:39.357Z,2.53
2023-02-19T22:30:12.192Z,2.88
2023-02-19T22:32:48.714Z,3.00
2023-02-19T22:35:19.269Z,2.83
2023-02-19T22:37:50.253Z,2.03
2023-02-19T22:40:25.376Z,2.88
2023-02-19T22:45:23.231Z,2.22
2023-02-19T22:47:54.390Z,3.08
2023-02-19T22:50:32.281Z,2.63
2023-02-19T22:53:00.462Z,2.88
2023-02-19T22:55:33.891Z,2.67
2023-02-19T22:58:05.247Z,3.30
2023-02-19T23:00:33.543Z,2.50
2023-02-19T23:03:07.793Z,2.58
2023-02-19T23:05:38.764Z,2.92
2023-02-19T23:08:09.618Z,2.72
2023-02-19T23:10:43.406Z,3.10
2023-02-19T23:13:14.594Z,3.17
2023-02-19T23:15:48.713Z,3.80
2023-02-19T23:18:21.428Z,2.85
2023-02-19T23:23:21.003Z,2.70
2023-02-19T23:25:50.371Z,2.60
2023-02-19T23:28:18.328Z,2.83
2023-02-19T23:30:46.298Z,2.95
2023-02-19T23:33:14.379Z,2.75
2023-02-19T23:35:42.309Z,3.03
2023-02-19T23:38:10.653Z,2.78
2023-02-19T23:40:38.642Z,3.35
2023-02-19T23:43:08.032Z,4.65
2023-02-19T23:45:35.952Z,3.28
2023-02-19T23:48:04.450Z,3.25
2023-02-19T23:50:32.432Z,2.83
2023-02-19T23:53:02.117Z,3.15
2023-02-19T23:55:30.751Z,2.88
2023-02-19T23:57:59.641Z,2.63
